sensor_id;sensor_type;location;lat;lon;timestamp;pressure;altitude;pressure_sealevel;temperature;humidity
1926;BME280;964;42.606;23.588;2023-04-08T00:01:42;94584.47;;;25.71;22.48
1926;BME280;964;42.606;23.588;2023-04-08T00:04:10;94582.19;;;25.48;22.61
1926;BME280;964;42.606;23.588;2023-04-08T00:06:38;94579.25;;;25.86;22.13
1926;BME280;964;42.606;23.588;2023-04-08T00:09:07;94575.84;;;26.04;22.01
1926;BME280;964;42.606;23.588;2023-04-08T00:11:34;94578.88;;;26.06;21.85
1926;BME280;964;42.606;23.588;2023-04-08T00:14:02;94584.47;;;25.71;22.07
1926;BME280;964;42.606;23.588;2023-04-08T00:16:29;94580.19;;;25.18;22.22
1926;BME280;964;42.606;23.588;2023-04-08T00:18:56;94584.38;;;25.10;22.63
1926;BME280;964;42.606;23.588;2023-04-08T00:21:23;94588.00;;;24.94;22.91
1926;BME280;964;42.606;23.588;2023-04-08T00:23:51;94584.34;;;24.88;22.78
1926;BME280;964;42.606;23.588;2023-04-08T00:26:19;94588.72;;;24.73;22.93
1926;BME280;964;42.606;23.588;2023-04-08T00:28:46;94594.13;;;24.73;22.73
1926;BME280;964;42.606;23.588;2023-04-08T00:31:13;94580.69;;;25.04;22.42
1926;BME280;964;42.606;23.588;2023-04-08T00:33:40;94590.22;;;25.30;22.36
1926;BME280;964;42.606;23.588;2023-04-08T00:36:07;94576.75;;;25.48;22.34
1926;BME280;964;42.606;23.588;2023-04-08T00:38:34;94580.53;;;25.51;22.43
1926;BME280;964;42.606;23.588;2023-04-08T00:41:01;94579.06;;;25.06;22.44
1926;BME280;964;42.606;23.588;2023-04-08T00:43:29;94580.56;;;24.85;22.42
1926;BME280;964;42.606;23.588;2023-04-08T00:45:56;94573.28;;;25.17;22.34
1926;BME280;964;42.606;23.588;2023-04-08T00:48:23;94568.97;;;25.07;22.51
1926;BME280;964;42.606;23.588;2023-04-08T00:50:49;94580.38;;;25.23;22.36
1926;BME280;964;42.606;23.588;2023-04-08T00:53:17;94582.47;;;25.41;22.27
1926;BME280;964;42.606;23.588;2023-04-08T00:55:44;94583.59;;;25.31;22.39
1926;BME280;964;42.606;23.588;2023-04-08T00:58:12;94582.59;;;25.37;22.43
1926;BME280;964;42.606;23.588;2023-04-08T01:00:45;94580.06;;;25.00;22.53
1926;BME280;964;42.606;23.588;2023-04-08T01:03:24;94575.66;;;25.15;22.36
1926;BME280;964;42.606;23.588;2023-04-08T01:05:56;94586.97;;;25.13;22.37
1926;BME280;964;42.606;23.588;2023-04-08T01:08:26;94591.31;;;24.76;22.93
1926;BME280;964;42.606;23.588;2023-04-08T01:10:59;94594.66;;;24.80;22.64
1926;BME280;964;42.606;23.588;2023-04-08T01:13:30;94588.91;;;24.91;22.42
1926;BME280;964;42.606;23.588;2023-04-08T01:16:01;94590.69;;;24.60;22.62
1926;BME280;964;42.606;23.588;2023-04-08T01:18:28;94595.19;;;24.16;23.32
1926;BME280;964;42.606;23.588;2023-04-08T01:20:57;94600.94;;;23.92;23.58
1926;BME280;964;42.606;23.588;2023-04-08T01:23:32;94598.44;;;24.11;23.10
1926;BME280;964;42.606;23.588;2023-04-08T01:26:03;94598.84;;;24.47;22.94
1926;BME280;964;42.606;23.588;2023-04-08T01:28:30;94599.91;;;24.62;22.47
1926;BME280;964;42.606;23.588;2023-04-08T01:31:00;94591.47;;;24.95;22.49
1926;BME280;964;42.606;23.588;2023-04-08T01:33:28;94597.16;;;25.31;22.59
1926;BME280;964;42.606;23.588;2023-04-08T01:35:56;94595.69;;;25.17;22.39
1926;BME280;964;42.606;23.588;2023-04-08T01:38:25;94590.03;;;25.46;22.09
1926;BME280;964;42.606;23.588;2023-04-08T01:40:53;94590.88;;;25.56;22.28
1926;BME280;964;42.606;23.588;2023-04-08T01:43:23;94601.03;;;25.64;22.39
1926;BME280;964;42.606;23.588;2023-04-08T01:45:52;94607.56;;;25.11;22.67
1926;BME280;964;42.606;23.588;2023-04-08T01:48:23;94597.09;;;25.65;22.13
1926;BME280;964;42.606;23.588;2023-04-08T01:50:51;94595.84;;;25.57;22.19
1926;BME280;964;42.606;23.588;2023-04-08T01:53:18;94599.22;;;25.70;22.47
1926;BME280;964;42.606;23.588;2023-04-08T01:55:45;94602.75;;;25.80;22.17
1926;BME280;964;42.606;23.588;2023-04-08T01:58:18;94599.66;;;26.00;22.18
1926;BME280;964;42.606;23.588;2023-04-08T02:00:47;94602.88;;;25.76;21.98
1926;BME280;964;42.606;23.588;2023-04-08T02:03:16;94608.72;;;25.97;22.07
1926;BME280;964;42.606;23.588;2023-04-08T02:05:44;94610.13;;;25.79;22.27
1926;BME280;964;42.606;23.588;2023-04-08T02:08:11;94614.97;;;25.84;22.21
1926;BME280;964;42.606;23.588;2023-04-08T02:10:38;94614.97;;;25.84;22.20
1926;BME280;964;42.606;23.588;2023-04-08T02:13:05;94620.06;;;25.73;22.04
1926;BME280;964;42.606;23.588;2023-04-08T02:15:33;94617.47;;;25.70;22.08
1926;BME280;964;42.606;23.588;2023-04-08T02:18:07;94620.41;;;25.84;22.08
1926;BME280;964;42.606;23.588;2023-04-08T02:20:38;94620.56;;;25.81;22.47
1926;BME280;964;42.606;23.588;2023-04-08T02:23:11;94623.97;;;25.72;22.36
1926;BME280;964;42.606;23.588;2023-04-08T02:25:43;94618.63;;;25.91;22.10
1926;BME280;964;42.606;23.588;2023-04-08T02:28:11;94622.09;;;25.60;22.68
1926;BME280;964;42.606;23.588;2023-04-08T02:30:41;94620.31;;;25.23;22.79
1926;BME280;964;42.606;23.588;2023-04-08T02:33:10;94615.13;;;25.81;22.55
1926;BME280;964;42.606;23.588;2023-04-08T02:35:39;94620.44;;;25.41;22.65
1926;BME280;964;42.606;23.588;2023-04-08T02:38:08;94612.97;;;25.11;22.83
1926;BME280;964;42.606;23.588;2023-04-08T02:40:35;94613.06;;;25.42;22.57
1926;BME280;964;42.606;23.588;2023-04-08T02:43:02;94611.84;;;24.99;23.00
1926;BME280;964;42.606;23.588;2023-04-08T02:45:30;94614.31;;;25.06;23.19
1926;BME280;964;42.606;23.588;2023-04-08T02:47:59;94610.34;;;25.20;22.97
1926;BME280;964;42.606;23.588;2023-04-08T02:50:27;94619.44;;;25.26;22.94
1926;BME280;964;42.606;23.588;2023-04-08T02:52:54;94613.75;;;25.33;23.20
1926;BME280;964;42.606;23.588;2023-04-08T02:55:21;94605.19;;;25.34;22.85
1926;BME280;964;42.606;23.588;2023-04-08T02:57:48;94615.00;;;25.41;22.83
1926;BME280;964;42.606;23.588;2023-04-08T03:00:15;94613.25;;;25.25;23.05
1926;BME280;964;42.606;23.588;2023-04-08T03:02:42;94614.00;;;25.69;22.56
1926;BME280;964;42.606;23.588;2023-04-08T03:05:10;94619.94;;;25.33;23.17
1926;BME280;964;42.606;23.588;2023-04-08T03:07:38;94621.19;;;25.42;23.08
1926;BME280;964;42.606;23.588;2023-04-08T03:10:06;94617.91;;;25.47;23.20
1926;BME280;964;42.606;23.588;2023-04-08T03:12:33;94616.41;;;25.24;23.24
1926;BME280;964;42.606;23.588;2023-04-08T03:15:00;94615.91;;;25.38;22.96
1926;BME280;964;42.606;23.588;2023-04-08T03:17:28;94612.28;;;25.54;22.80
1926;BME280;964;42.606;23.588;2023-04-08T03:19:56;94613.13;;;25.29;22.53
1926;BME280;964;42.606;23.588;2023-04-08T03:22:23;94614.06;;;24.92;22.76
1926;BME280;964;42.606;23.588;2023-04-08T03:24:51;94608.25;;;25.02;22.72
1926;BME280;964;42.606;23.588;2023-04-08T03:27:18;94628.09;;;24.02;23.48
1926;BME280;964;42.606;23.588;2023-04-08T03:29:47;94633.03;;;23.65;24.30
1926;BME280;964;42.606;23.588;2023-04-08T03:32:14;94628.63;;;23.30;24.36
1926;BME280;964;42.606;23.588;2023-04-08T03:34:41;94620.97;;;23.82;24.27
1926;BME280;964;42.606;23.588;2023-04-08T03:37:08;94630.38;;;24.03;24.23
1926;BME280;964;42.606;23.588;2023-04-08T03:39:34;94613.47;;;24.50;23.42
1926;BME280;964;42.606;23.588;2023-04-08T03:42:03;94629.88;;;24.21;23.70
1926;BME280;964;42.606;23.588;2023-04-08T03:44:30;94625.50;;;23.85;23.93
1926;BME280;964;42.606;23.588;2023-04-08T03:46:56;94626.88;;;23.65;24.33
1926;BME280;964;42.606;23.588;2023-04-08T03:49:23;94630.38;;;24.66;23.54
1926;BME280;964;42.606;23.588;2023-04-08T03:51:50;94628.63;;;24.60;23.43
1926;BME280;964;42.606;23.588;2023-04-08T03:54:17;94626.13;;;24.65;23.13
1926;BME280;964;42.606;23.588;2023-04-08T03:56:44;94619.09;;;25.02;23.09
1926;BME280;964;42.606;23.588;2023-04-08T03:59:12;94623.34;;;24.31;23.50
1926;BME280;964;42.606;23.588;2023-04-08T04:01:39;94615.78;;;25.20;23.16
1926;BME280;964;42.606;23.588;2023-04-08T04:04:06;94613.91;;;25.51;22.60
1926;BME280;964;42.606;23.588;2023-04-08T04:06:33;94621.97;;;25.42;22.65
1926;BME280;964;42.606;23.588;2023-04-08T04:09:00;94619.53;;;25.57;22.72
1926;BME280;964;42.606;23.588;2023-04-08T04:11:26;94624.84;;;25.69;22.38
1926;BME280;964;42.606;23.588;2023-04-08T04:13:53;94624.34;;;25.40;22.58
1926;BME280;964;42.606;23.588;2023-04-08T04:16:21;94621.06;;;25.02;23.05
1926;BME280;964;42.606;23.588;2023-04-08T04:18:48;94615.38;;;24.87;23.05
1926;BME280;964;42.606;23.588;2023-04-08T04:21:15;94639.25;;;23.78;24.30
1926;BME280;964;42.606;23.588;2023-04-08T04:23:42;94637.06;;;23.73;24.35
1926;BME280;964;42.606;23.588;2023-04-08T04:26:09;94644.53;;;23.69;24.58
1926;BME280;964;42.606;23.588;2023-04-08T04:28:36;94644.94;;;23.55;25.01
1926;BME280;964;42.606;23.588;2023-04-08T04:31:03;94647.56;;;22.85;24.84
1926;BME280;964;42.606;23.588;2023-04-08T04:33:31;94644.94;;;22.81;25.26
1926;BME280;964;42.606;23.588;2023-04-08T04:35:58;94646.38;;;23.02;24.99
1926;BME280;964;42.606;23.588;2023-04-08T04:38:25;94644.56;;;23.12;25.76
1926;BME280;964;42.606;23.588;2023-04-08T04:40:52;94649.47;;;23.01;25.68
1926;BME280;964;42.606;23.588;2023-04-08T04:43:19;94634.34;;;24.74;23.65
1926;BME280;964;42.606;23.588;2023-04-08T04:45:45;94625.84;;;24.98;23.47
1926;BME280;964;42.606;23.588;2023-04-08T04:48:12;94630.44;;;24.88;23.54
1926;BME280;964;42.606;23.588;2023-04-08T04:50:41;94647.47;;;23.75;24.75
1926;BME280;964;42.606;23.588;2023-04-08T04:53:08;94629.34;;;25.20;23.48
1926;BME280;964;42.606;23.588;2023-04-08T04:55:34;94646.94;;;23.92;24.81
1926;BME280;964;42.606;23.588;2023-04-08T04:58:01;94631.31;;;25.07;23.65
1926;BME280;964;42.606;23.588;2023-04-08T05:00:28;94641.34;;;24.25;24.10
1926;BME280;964;42.606;23.588;2023-04-08T05:02:55;94643.91;;;24.41;24.42
1926;BME280;964;42.606;23.588;2023-04-08T05:05:22;94639.56;;;24.56;24.34
1926;BME280;964;42.606;23.588;2023-04-08T05:07:50;94639.25;;;24.54;24.70
1926;BME280;964;42.606;23.588;2023-04-08T05:10:18;94642.66;;;24.20;24.89
1926;BME280;964;42.606;23.588;2023-04-08T05:12:45;94650.03;;;23.53;25.65
1926;BME280;964;42.606;23.588;2023-04-08T05:15:12;94642.50;;;24.62;24.42
1926;BME280;964;42.606;23.588;2023-04-08T05:17:38;94646.16;;;23.67;25.41
1926;BME280;964;42.606;23.588;2023-04-08T05:20:06;94626.78;;;25.04;24.25
1926;BME280;964;42.606;23.588;2023-04-08T05:22:33;94637.97;;;24.46;25.05
1926;BME280;964;42.606;23.588;2023-04-08T05:25:01;94634.09;;;24.81;24.72
1926;BME280;964;42.606;23.588;2023-04-08T05:27:28;94635.53;;;24.73;24.55
1926;BME280;964;42.606;23.588;2023-04-08T05:29:55;94625.84;;;24.98;24.55
1926;BME280;964;42.606;23.588;2023-04-08T05:32:22;94626.38;;;25.27;24.47
1926;BME280;964;42.606;23.588;2023-04-08T05:34:49;94623.84;;;26.16;23.80
1926;BME280;964;42.606;23.588;2023-04-08T05:37:16;94625.84;;;25.84;23.81
1926;BME280;964;42.606;23.588;2023-04-08T05:39:43;94623.75;;;26.19;23.54
1926;BME280;964;42.606;23.588;2023-04-08T05:42:11;94619.75;;;26.42;23.47
1926;BME280;964;42.606;23.588;2023-04-08T05:44:39;94624.69;;;27.11;23.28
1926;BME280;964;42.606;23.588;2023-04-08T05:47:08;94625.59;;;26.31;24.31
1926;BME280;964;42.606;23.588;2023-04-08T05:49:35;94624.84;;;26.31;23.95
1926;BME280;964;42.606;23.588;2023-04-08T05:52:02;94630.03;;;25.33;24.72
1926;BME280;964;42.606;23.588;2023-04-08T05:54:29;94626.28;;;25.52;24.52
1926;BME280;964;42.606;23.588;2023-04-08T05:56:56;94621.13;;;26.47;23.90
1926;BME280;964;42.606;23.588;2023-04-08T05:59:24;94625.31;;;25.99;24.02
1926;BME280;964;42.606;23.588;2023-04-08T06:01:51;94622.25;;;26.76;23.26
1926;BME280;964;42.606;23.588;2023-04-08T06:04:19;94617.91;;;27.24;23.30
1926;BME280;964;42.606;23.588;2023-04-08T06:06:46;94622.00;;;27.02;23.50
1926;BME280;964;42.606;23.588;2023-04-08T06:09:13;94620.19;;;27.17;23.46
1926;BME280;964;42.606;23.588;2023-04-08T06:11:40;94625.00;;;27.22;23.38
1926;BME280;964;42.606;23.588;2023-04-08T06:14:07;94629.56;;;27.61;22.64
1926;BME280;964;42.606;23.588;2023-04-08T06:16:35;94628.47;;;27.59;22.62
1926;BME280;964;42.606;23.588;2023-04-08T06:19:02;94617.69;;;29.05;21.31
1926;BME280;964;42.606;23.588;2023-04-08T06:21:29;94626.50;;;27.41;22.58
1926;BME280;964;42.606;23.588;2023-04-08T06:23:56;94625.09;;;28.57;21.95
1926;BME280;964;42.606;23.588;2023-04-08T06:26:22;94633.47;;;27.15;23.05
1926;BME280;964;42.606;23.588;2023-04-08T06:28:49;94632.44;;;28.09;22.29
1926;BME280;964;42.606;23.588;2023-04-08T06:31:16;94647.22;;;26.35;23.54
1926;BME280;964;42.606;23.588;2023-04-08T06:33:44;94645.28;;;26.45;23.83
1926;BME280;964;42.606;23.588;2023-04-08T06:36:11;94647.16;;;24.61;25.63
1926;BME280;964;42.606;23.588;2023-04-08T06:38:38;94653.88;;;25.16;25.27
1926;BME280;964;42.606;23.588;2023-04-08T06:41:05;94641.47;;;25.71;24.50
1926;BME280;964;42.606;23.588;2023-04-08T06:43:33;94646.13;;;26.02;24.41
1926;BME280;964;42.606;23.588;2023-04-08T06:46:01;94651.28;;;24.53;25.27
1926;BME280;964;42.606;23.588;2023-04-08T06:48:28;94639.63;;;25.68;25.16
1926;BME280;964;42.606;23.588;2023-04-08T06:50:58;94642.09;;;24.98;25.26
1926;BME280;964;42.606;23.588;2023-04-08T06:53:26;94641.25;;;25.44;24.86
1926;BME280;964;42.606;23.588;2023-04-08T06:55:53;94643.56;;;26.29;24.52
1926;BME280;964;42.606;23.588;2023-04-08T06:58:20;94638.97;;;26.17;24.14
1926;BME280;964;42.606;23.588;2023-04-08T07:00:47;94641.19;;;26.09;24.29
1926;BME280;964;42.606;23.588;2023-04-08T07:03:14;94652.19;;;24.97;25.47
1926;BME280;964;42.606;23.588;2023-04-08T07:05:41;94648.72;;;25.31;25.55
1926;BME280;964;42.606;23.588;2023-04-08T07:08:09;94652.63;;;25.73;24.88
1926;BME280;964;42.606;23.588;2023-04-08T07:10:36;94645.59;;;27.50;23.13
1926;BME280;964;42.606;23.588;2023-04-08T07:13:03;94654.94;;;27.13;23.52
1926;BME280;964;42.606;23.588;2023-04-08T07:15:30;94656.78;;;25.44;24.66
1926;BME280;964;42.606;23.588;2023-04-08T07:17:57;94651.47;;;25.40;24.90
1926;BME280;964;42.606;23.588;2023-04-08T07:20:24;94655.56;;;27.53;23.35
1926;BME280;964;42.606;23.588;2023-04-08T07:22:51;94658.19;;;28.08;23.05
1926;BME280;964;42.606;23.588;2023-04-08T07:25:19;94658.44;;;25.84;24.23
1926;BME280;964;42.606;23.588;2023-04-08T07:27:46;94681.75;;;24.45;26.56
1926;BME280;964;42.606;23.588;2023-04-08T07:30:13;94658.31;;;25.66;24.76
1926;BME280;964;42.606;23.588;2023-04-08T07:32:40;94664.06;;;26.21;24.76
1926;BME280;964;42.606;23.588;2023-04-08T07:35:07;94658.66;;;26.79;23.46
1926;BME280;964;42.606;23.588;2023-04-08T07:37:34;94664.53;;;26.68;23.90
1926;BME280;964;42.606;23.588;2023-04-08T07:40:01;94658.50;;;26.73;24.17
1926;BME280;964;42.606;23.588;2023-04-08T07:42:29;94669.00;;;25.61;25.21
1926;BME280;964;42.606;23.588;2023-04-08T07:44:56;94673.16;;;25.18;25.60
1926;BME280;964;42.606;23.588;2023-04-08T07:47:23;94667.09;;;25.70;25.23
1926;BME280;964;42.606;23.588;2023-04-08T07:49:49;94669.97;;;26.28;25.43
1926;BME280;964;42.606;23.588;2023-04-08T07:52:16;94670.53;;;25.93;25.41
1926;BME280;964;42.606;23.588;2023-04-08T07:54:43;94679.66;;;24.74;26.53
1926;BME280;964;42.606;23.588;2023-04-08T07:57:10;94679.72;;;24.96;26.40
1926;BME280;964;42.606;23.588;2023-04-08T07:59:38;94679.38;;;25.84;25.83
1926;BME280;964;42.606;23.588;2023-04-08T08:02:05;94677.06;;;26.26;25.35
1926;BME280;964;42.606;23.588;2023-04-08T08:04:32;94670.97;;;27.02;24.96
1926;BME280;964;42.606;23.588;2023-04-08T08:06:59;94677.25;;;26.10;25.37
1926;BME280;964;42.606;23.588;2023-04-08T08:09:26;94675.69;;;26.70;24.75
1926;BME280;964;42.606;23.588;2023-04-08T08:11:52;94674.66;;;26.28;25.45
1926;BME280;964;42.606;23.588;2023-04-08T08:14:19;94673.72;;;26.71;25.31
1926;BME280;964;42.606;23.588;2023-04-08T08:16:48;94677.63;;;27.28;24.28
1926;BME280;964;42.606;23.588;2023-04-08T08:19:15;94672.47;;;27.03;24.83
1926;BME280;964;42.606;23.588;2023-04-08T08:21:42;94669.25;;;26.86;24.68
1926;BME280;964;42.606;23.588;2023-04-08T08:24:08;94683.91;;;26.89;24.68
1926;BME280;964;42.606;23.588;2023-04-08T08:26:35;94680.59;;;26.85;24.30
1926;BME280;964;42.606;23.588;2023-04-08T08:29:02;94684.88;;;27.13;24.02
1926;BME280;964;42.606;23.588;2023-04-08T08:31:29;94684.09;;;27.03;24.12
1926;BME280;964;42.606;23.588;2023-04-08T08:33:57;94688.59;;;26.39;24.34
1926;BME280;964;42.606;23.588;2023-04-08T08:36:24;94696.13;;;26.35;24.80
1926;BME280;964;42.606;23.588;2023-04-08T08:38:53;94689.50;;;26.85;24.20
1926;BME280;964;42.606;23.588;2023-04-08T08:41:19;94684.53;;;26.93;24.25
1926;BME280;964;42.606;23.588;2023-04-08T08:43:47;94686.56;;;26.61;24.62
1926;BME280;964;42.606;23.588;2023-04-08T08:46:15;94686.69;;;27.25;24.08
1926;BME280;964;42.606;23.588;2023-04-08T08:48:43;94685.97;;;26.75;24.55
1926;BME280;964;42.606;23.588;2023-04-08T08:51:12;94685.19;;;27.69;23.70
1926;BME280;964;42.606;23.588;2023-04-08T08:53:39;94672.19;;;27.64;23.91
1926;BME280;964;42.606;23.588;2023-04-08T08:56:09;94691.22;;;27.37;24.36
1926;BME280;964;42.606;23.588;2023-04-08T08:58:37;94685.44;;;28.50;22.94
1926;BME280;964;42.606;23.588;2023-04-08T09:01:32;94696.19;;;27.84;23.64
1926;BME280;964;42.606;23.588;2023-04-08T09:04:13;94696.56;;;27.50;23.50
1926;BME280;964;42.606;23.588;2023-04-08T09:06:45;94706.22;;;26.74;24.44
1926;BME280;964;42.606;23.588;2023-04-08T09:09:13;94699.44;;;28.34;23.52
1926;BME280;964;42.606;23.588;2023-04-08T09:11:41;94697.91;;;28.74;23.13
1926;BME280;964;42.606;23.588;2023-04-08T09:14:21;94689.00;;;31.12;20.75
1926;BME280;964;42.606;23.588;2023-04-08T09:16:49;94678.28;;;32.26;20.07
1926;BME280;964;42.606;23.588;2023-04-08T09:19:16;94686.19;;;31.93;21.33
1926;BME280;964;42.606;23.588;2023-04-08T09:21:44;94679.44;;;32.45;19.69
1926;BME280;964;42.606;23.588;2023-04-08T09:24:27;94683.81;;;32.06;20.04
1926;BME280;964;42.606;23.588;2023-04-08T09:26:54;94690.72;;;30.95;21.08
1926;BME280;964;42.606;23.588;2023-04-08T09:29:22;94689.31;;;30.64;21.17
1926;BME280;964;42.606;23.588;2023-04-08T09:31:52;94682.47;;;30.89;21.50
1926;BME280;964;42.606;23.588;2023-04-08T09:34:20;94687.28;;;30.30;21.79
1926;BME280;964;42.606;23.588;2023-04-08T09:36:49;94683.00;;;30.58;21.36
1926;BME280;964;42.606;23.588;2023-04-08T09:39:16;94690.47;;;30.58;21.36
1926;BME280;964;42.606;23.588;2023-04-08T09:41:43;94668.81;;;32.27;20.84
1926;BME280;964;42.606;23.588;2023-04-08T09:44:14;94670.66;;;32.10;19.63
1926;BME280;964;42.606;23.588;2023-04-08T09:46:50;94664.75;;;31.66;20.68
1926;BME280;964;42.606;23.588;2023-04-08T09:49:25;94680.41;;;29.38;21.98
1926;BME280;964;42.606;23.588;2023-04-08T09:51:58;94672.38;;;30.31;21.62
1926;BME280;964;42.606;23.588;2023-04-08T09:54:34;94660.97;;;31.89;20.63
1926;BME280;964;42.606;23.588;2023-04-08T09:57:04;94665.47;;;32.18;20.04
1926;BME280;964;42.606;23.588;2023-04-08T09:59:36;94661.59;;;31.52;20.04
1926;BME280;964;42.606;23.588;2023-04-08T10:02:06;94667.78;;;30.23;21.25
1926;BME280;964;42.606;23.588;2023-04-08T10:04:38;94663.31;;;31.50;20.21
1926;BME280;964;42.606;23.588;2023-04-08T10:07:09;94665.88;;;30.43;20.45
1926;BME280;964;42.606;23.588;2023-04-08T10:09:36;94661.84;;;30.94;21.01
1926;BME280;964;42.606;23.588;2023-04-08T10:12:05;94659.22;;;30.00;21.07
1926;BME280;964;42.606;23.588;2023-04-08T10:14:32;94653.09;;;30.90;20.44
1926;BME280;964;42.606;23.588;2023-04-08T10:17:23;94642.03;;;32.53;19.80
1926;BME280;964;42.606;23.588;2023-04-08T10:19:50;94644.75;;;31.59;20.09
1926;BME280;964;42.606;23.588;2023-04-08T10:22:47;94643.25;;;32.47;19.69
1926;BME280;964;42.606;23.588;2023-04-08T10:25:28;94644.41;;;31.78;19.85
1926;BME280;964;42.606;23.588;2023-04-08T10:27:56;94626.66;;;33.80;18.47
1926;BME280;964;42.606;23.588;2023-04-08T10:30:40;94630.66;;;34.01;18.08
1926;BME280;964;42.606;23.588;2023-04-08T10:33:09;94622.94;;;35.29;16.89
1926;BME280;964;42.606;23.588;2023-04-08T10:35:38;94623.38;;;33.76;17.63
1926;BME280;964;42.606;23.588;2023-04-08T10:38:08;94629.63;;;33.71;17.36
1926;BME280;964;42.606;23.588;2023-04-08T10:40:37;94609.44;;;35.20;17.08
1926;BME280;964;42.606;23.588;2023-04-08T10:43:06;94602.00;;;36.81;15.91
1926;BME280;964;42.606;23.588;2023-04-08T10:45:33;94618.53;;;33.48;18.24
1926;BME280;964;42.606;23.588;2023-04-08T10:48:14;94623.50;;;32.37;17.85
1926;BME280;964;42.606;23.588;2023-04-08T10:50:42;94625.81;;;32.13;18.64
1926;BME280;964;42.606;23.588;2023-04-08T10:53:10;94606.41;;;34.33;17.61
1926;BME280;964;42.606;23.588;2023-04-08T10:55:37;94607.56;;;33.48;18.47
1926;BME280;964;42.606;23.588;2023-04-08T10:58:05;94597.06;;;33.52;18.02
1926;BME280;964;42.606;23.588;2023-04-08T11:00:34;94607.56;;;33.60;17.58
1926;BME280;964;42.606;23.588;2023-04-08T11:03:01;94593.59;;;35.37;17.78
1926;BME280;964;42.606;23.588;2023-04-08T11:05:28;94593.56;;;34.80;17.26
1926;BME280;964;42.606;23.588;2023-04-08T11:07:56;94584.59;;;34.57;17.08
1926;BME280;964;42.606;23.588;2023-04-08T11:10:24;94605.59;;;31.85;19.00
1926;BME280;964;42.606;23.588;2023-04-08T11:12:53;94597.00;;;31.20;19.99
1926;BME280;964;42.606;23.588;2023-04-08T11:15:20;94592.94;;;32.55;19.30
1926;BME280;964;42.606;23.588;2023-04-08T11:17:48;94594.63;;;31.53;19.49
1926;BME280;964;42.606;23.588;2023-04-08T11:20:16;94587.91;;;31.54;20.25
1926;BME280;964;42.606;23.588;2023-04-08T11:22:43;94589.81;;;31.48;19.37
1926;BME280;964;42.606;23.588;2023-04-08T11:25:10;94587.56;;;32.04;19.18
1926;BME280;964;42.606;23.588;2023-04-08T11:27:39;94588.28;;;31.68;19.61
1926;BME280;964;42.606;23.588;2023-04-08T11:30:07;94579.91;;;32.93;19.05
1926;BME280;964;42.606;23.588;2023-04-08T11:32:35;94576.81;;;31.43;19.63
1926;BME280;964;42.606;23.588;2023-04-08T11:35:04;94584.53;;;31.19;19.22
1926;BME280;964;42.606;23.588;2023-04-08T11:37:38;94574.97;;;31.86;19.02
1926;BME280;964;42.606;23.588;2023-04-08T11:40:07;94579.59;;;31.23;19.81
1926;BME280;964;42.606;23.588;2023-04-08T11:42:34;94573.03;;;31.41;19.25
1926;BME280;964;42.606;23.588;2023-04-08T11:45:09;94558.84;;;33.49;18.47
1926;BME280;964;42.606;23.588;2023-04-08T11:47:36;94574.13;;;31.75;18.22
1926;BME280;964;42.606;23.588;2023-04-08T11:50:04;94573.50;;;30.93;19.06
1926;BME280;964;42.606;23.588;2023-04-08T11:52:41;94569.03;;;31.36;19.21
1926;BME280;964;42.606;23.588;2023-04-08T11:55:09;94573.50;;;30.18;20.04
1926;BME280;964;42.606;23.588;2023-04-08T11:57:36;94566.31;;;31.36;19.23
1926;BME280;964;42.606;23.588;2023-04-08T12:00:06;94568.19;;;31.50;17.65
1926;BME280;964;42.606;23.588;2023-04-08T12:02:34;94558.13;;;32.30;18.32
1926;BME280;964;42.606;23.588;2023-04-08T12:05:00;94563.72;;;30.87;17.83
1926;BME280;964;42.606;23.588;2023-04-08T12:07:27;94563.63;;;30.55;18.03
1926;BME280;964;42.606;23.588;2023-04-08T12:09:54;94572.03;;;30.37;17.96
1926;BME280;964;42.606;23.588;2023-04-08T12:12:21;94568.75;;;29.84;17.92
1926;BME280;964;42.606;23.588;2023-04-08T12:14:48;94549.72;;;30.59;17.07
1926;BME280;964;42.606;23.588;2023-04-08T12:17:17;94551.66;;;32.33;16.46
1926;BME280;964;42.606;23.588;2023-04-08T12:19:44;94550.13;;;32.32;16.75
1926;BME280;964;42.606;23.588;2023-04-08T12:22:11;94532.59;;;32.13;17.41
1926;BME280;964;42.606;23.588;2023-04-08T12:24:38;94533.22;;;31.66;17.64
1926;BME280;964;42.606;23.588;2023-04-08T12:27:04;94538.06;;;32.13;17.03
1926;BME280;964;42.606;23.588;2023-04-08T12:29:31;94537.38;;;31.87;17.18
1926;BME280;964;42.606;23.588;2023-04-08T12:31:58;94537.00;;;32.05;17.28
1926;BME280;964;42.606;23.588;2023-04-08T12:34:28;94545.00;;;29.90;18.70
1926;BME280;964;42.606;23.588;2023-04-08T12:36:54;94531.19;;;31.60;17.83
1926;BME280;964;42.606;23.588;2023-04-08T12:39:21;94531.44;;;31.63;17.84
1926;BME280;964;42.606;23.588;2023-04-08T12:41:48;94535.84;;;32.17;17.38
1926;BME280;964;42.606;23.588;2023-04-08T12:44:16;94535.38;;;32.67;17.83
1926;BME280;964;42.606;23.588;2023-04-08T12:46:43;94551.97;;;31.01;19.10
1926;BME280;964;42.606;23.588;2023-04-08T12:49:10;94549.13;;;30.70;19.40
1926;BME280;964;42.606;23.588;2023-04-08T12:51:39;94544.50;;;32.10;18.17
1926;BME280;964;42.606;23.588;2023-04-08T12:54:06;94543.06;;;31.83;18.66
1926;BME280;964;42.606;23.588;2023-04-08T12:56:33;94535.41;;;30.90;18.69
1926;BME280;964;42.606;23.588;2023-04-08T12:59:00;94521.94;;;32.26;18.37
1926;BME280;964;42.606;23.588;2023-04-08T13:01:27;94524.22;;;32.33;17.83
1926;BME280;964;42.606;23.588;2023-04-08T13:03:55;94502.66;;;33.89;17.02
1926;BME280;964;42.606;23.588;2023-04-08T13:06:21;94492.91;;;34.84;15.63
1926;BME280;964;42.606;23.588;2023-04-08T13:08:50;94489.00;;;35.51;15.88
1926;BME280;964;42.606;23.588;2023-04-08T13:11:16;94490.22;;;36.15;15.68
1926;BME280;964;42.606;23.588;2023-04-08T13:13:43;94472.91;;;36.63;15.01
1926;BME280;964;42.606;23.588;2023-04-08T13:16:11;94470.06;;;37.24;15.20
1926;BME280;964;42.606;23.588;2023-04-08T13:18:40;94463.22;;;37.76;13.96
1926;BME280;964;42.606;23.588;2023-04-08T13:21:07;94465.28;;;36.88;14.82
1926;BME280;964;42.606;23.588;2023-04-08T13:23:34;94478.66;;;35.92;15.80
1926;BME280;964;42.606;23.588;2023-04-08T13:26:02;94482.69;;;33.66;17.44
1926;BME280;964;42.606;23.588;2023-04-08T13:28:29;94490.94;;;30.95;19.26